createdAt,value
2019-01-26T00:00:52.150Z,41.85
2019-01-26T00:02:01.239Z,41.83
2019-01-26T00:03:10.057Z,41.46
2019-01-26T00:04:18.894Z,41.94
2019-01-26T00:05:28.016Z,41.93
2019-01-26T00:06:37.130Z,41.73
2019-01-26T00:07:46.221Z,41.85
2019-01-26T00:08:55.061Z,41.73
2019-01-26T00:10:03.870Z,41.93
2019-01-26T00:11:12.750Z,41.54
2019-01-26T00:12:21.838Z,41.73
2019-01-26T00:13:30.949Z,41.83
2019-01-26T00:14:40.044Z,41.73
2019-01-26T00:15:48.969Z,41.83
2019-01-26T00:16:58.161Z,41.54
2019-01-26T00:18:06.982Z,41.83
2019-01-26T00:19:16.065Z,41.75
2019-01-26T00:20:25.687Z,41.56
2019-01-26T00:21:38.908Z,41.44
2019-01-26T00:22:47.731Z,41.44
2019-01-26T00:23:57.594Z,41.27
2019-01-26T00:25:06.678Z,41.25
2019-01-26T00:26:15.492Z,41.25
2019-01-26T00:27:24.332Z,41.54
2019-01-26T00:28:33.396Z,41.25
2019-01-26T00:29:42.475Z,41.25
2019-01-26T00:30:51.822Z,41.44
2019-01-26T00:32:01.420Z,41.25
2019-01-26T00:33:10.604Z,41.25
2019-01-26T00:34:19.816Z,41.35
2019-01-26T00:35:28.641Z,41.17
2019-01-26T00:36:37.743Z,41.27
2019-01-26T00:37:46.554Z,41.37
2019-01-26T00:38:55.367Z,41.06
2019-01-26T00:40:04.518Z,41.25
2019-01-26T00:41:13.597Z,40.87
2019-01-26T00:42:22.400Z,41.16
2019-01-26T00:43:31.232Z,40.96
2019-01-26T00:44:40.044Z,40.99
2019-01-26T00:45:49.200Z,41.06
2019-01-26T00:46:58.282Z,41.06
2019-01-26T00:48:07.114Z,41.16
2019-01-26T00:49:16.234Z,41.08
2019-01-26T00:50:25.114Z,40.96
2019-01-26T00:51:33.995Z,41.08
2019-01-26T00:52:42.816Z,41.16
2019-01-26T00:53:52.165Z,40.99
2019-01-26T00:55:01.252Z,41.06
2019-01-26T00:56:10.055Z,41.08
2019-01-26T00:57:19.215Z,40.96
2019-01-26T00:58:28.580Z,40.87
2019-01-26T00:59:37.668Z,40.96
2019-01-26T01:00:46.496Z,40.99
2019-01-26T01:01:55.312Z,41.06
2019-01-26T01:03:04.136Z,40.96
2019-01-26T01:04:12.972Z,41.06
2019-01-26T01:05:21.790Z,40.96
2019-01-26T01:06:30.595Z,41.06
2019-01-26T01:07:39.436Z,41.06
2019-01-26T01:08:48.484Z,40.96
2019-01-26T01:09:58.144Z,41.06
2019-01-26T01:11:07.215Z,41.16
2019-01-26T01:12:16.303Z,41.06
2019-01-26T01:13:25.631Z,41.16
2019-01-26T01:14:34.482Z,41.16
2019-01-26T01:15:43.300Z,41.16
2019-01-26T01:16:52.113Z,41.16
2019-01-26T01:18:02.003Z,40.67
2019-01-26T01:19:10.824Z,40.39
2019-01-26T01:20:19.895Z,40.5
2019-01-26T01:21:29.273Z,40
2019-01-26T01:22:38.637Z,40.29
2019-01-26T01:23:47.844Z,40.2
2019-01-26T01:24:56.663Z,40.29
2019-01-26T01:26:05.875Z,40
2019-01-26T01:27:14.691Z,40
2019-01-26T01:28:23.797Z,39.81
2019-01-26T01:29:32.887Z,39.62
2019-01-26T01:30:42.216Z,39.53
2019-01-26T01:31:51.305Z,39.91
2019-01-26T01:33:00.404Z,39.91
2019-01-26T01:34:09.223Z,39.72
2019-01-26T01:35:18.576Z,39.81
2019-01-26T01:36:27.690Z,39.91
2019-01-26T01:37:37.112Z,39.72
2019-01-26T01:38:45.942Z,39.62
2019-01-26T01:39:54.771Z,39.72
2019-01-26T01:41:03.592Z,39.62
2019-01-26T01:42:12.674Z,39.91
2019-01-26T01:43:21.872Z,39.81
2019-01-26T01:44:30.691Z,39.53
2019-01-26T01:45:39.769Z,39.72
2019-01-26T01:46:49.121Z,39.62
2019-01-26T01:47:58.478Z,39.53
2019-01-26T01:49:07.590Z,39.62
2019-01-26T01:50:16.685Z,39.81
2019-01-26T01:51:25.769Z,39.72
2019-01-26T01:52:34.706Z,39.53
2019-01-26T01:53:44.346Z,39.91
2019-01-26T01:54:53.690Z,40.1
2019-01-26T01:56:02.579Z,39.53
2019-01-26T01:57:11.387Z,39.14
2019-01-26T01:58:20.204Z,39.14
2019-01-26T01:59:29.036Z,38.95
2019-01-26T02:00:38.422Z,39.04
2019-01-26T02:01:47.505Z,38.85
2019-01-26T02:02:56.312Z,38.76
2019-01-26T02:04:05.171Z,38.95
2019-01-26T02:05:14.514Z,39.81
2019-01-26T02:06:23.590Z,38.95
2019-01-26T02:07:32.698Z,38.56
2019-01-26T02:08:41.771Z,38.56
2019-01-26T02:09:50.611Z,38.76
2019-01-26T02:10:59.682Z,38.56
2019-01-26T02:12:08.518Z,38.95
2019-01-26T02:13:17.844Z,38.56
2019-01-26T02:14:26.930Z,38.76
2019-01-26T02:15:36.015Z,38.95
2019-01-26T02:16:49.997Z,38.95
2019-01-26T02:17:59.335Z,38.76
2019-01-26T02:19:08.427Z,38.95
2019-01-26T02:20:17.771Z,39.81
2019-01-26T02:21:27.365Z,38.76
2019-01-26T02:22:36.466Z,38.95
2019-01-26T02:23:45.277Z,38.95
2019-01-26T02:24:54.351Z,38.76
2019-01-26T02:26:03.302Z,38.85
2019-01-26T02:27:12.206Z,38.76
2019-01-26T02:28:21.080Z,38.95
2019-01-26T02:29:29.904Z,38.85
2019-01-26T02:30:38.738Z,38.95
2019-01-26T02:31:48.097Z,38.76
2019-01-26T02:32:57.179Z,39.91
2019-01-26T02:34:06.010Z,38.66
2019-01-26T02:35:15.088Z,38.85
2019-01-26T02:36:24.450Z,39.91
2019-01-26T02:37:33.564Z,38.76
2019-01-26T02:38:42.383Z,39.14
2019-01-26T02:39:51.488Z,38.95
2019-01-26T02:41:00.405Z,39.04
2019-01-26T02:42:09.199Z,38.95
2019-01-26T02:43:18.013Z,38.85
2019-01-26T02:44:27.115Z,39.14
2019-01-26T02:45:35.929Z,38.76
2019-01-26T02:46:45.142Z,38.76
2019-01-26T02:48:00.352Z,38.95
2019-01-26T02:49:09.729Z,38.56
2019-01-26T02:50:18.814Z,38.95
2019-01-26T02:51:27.663Z,38.95
2019-01-26T02:52:37.052Z,38.76
2019-01-26T02:53:46.726Z,38.95
2019-01-26T02:54:55.809Z,38.85
2019-01-26T02:56:04.920Z,38.56
2019-01-26T02:57:13.988Z,38.95
2019-01-26T02:58:22.905Z,39.23
2019-01-26T02:59:31.729Z,38.95
2019-01-26T03:00:40.531Z,38.95
2019-01-26T03:01:49.629Z,38.95
2019-01-26T03:02:58.445Z,39.72
2019-01-26T03:04:07.379Z,38.85
2019-01-26T03:05:17.005Z,38.85
2019-01-26T03:06:25.829Z,38.95
2019-01-26T03:07:35.203Z,38.95
2019-01-26T03:08:44.319Z,38.76
2019-01-26T03:09:53.232Z,38.95
2019-01-26T03:11:02.055Z,38.95
2019-01-26T03:12:10.920Z,38.95
2019-01-26T03:13:20.298Z,38.95
2019-01-26T03:14:29.386Z,38.95
2019-01-26T03:15:38.794Z,38.95
2019-01-26T03:16:48.358Z,38.95
2019-01-26T03:17:57.472Z,38.95
2019-01-26T03:19:06.548Z,38.95
2019-01-26T03:20:15.631Z,38.76
2019-01-26T03:21:24.807Z,38.95
2019-01-26T03:22:33.875Z,38.95
2019-01-26T03:23:43.205Z,38.95
2019-01-26T03:24:52.340Z,38.95
2019-01-26T03:26:01.171Z,38.95
2019-01-26T03:27:10.579Z,38.95
2019-01-26T03:28:19.416Z,39.04
2019-01-26T03:29:28.513Z,38.76
2019-01-26T03:30:37.878Z,38.76
2019-01-26T03:31:47.009Z,38.76
2019-01-26T03:32:56.270Z,38.85
2019-01-26T03:34:05.386Z,38.95
2019-01-26T03:35:14.748Z,38.85
2019-01-26T03:36:23.569Z,38.95
2019-01-26T03:37:32.396Z,38.76
2019-01-26T03:38:41.527Z,38.85
2019-01-26T03:39:50.327Z,38.76
2019-01-26T03:40:59.155Z,38.76
2019-01-26T03:42:08.234Z,38.85
2019-01-26T03:43:17.066Z,39.04
2019-01-26T03:44:26.213Z,39.53
2019-01-26T03:45:35.042Z,38.85
2019-01-26T03:46:43.864Z,38.85
2019-01-26T03:47:52.960Z,38.95
2019-01-26T03:49:02.298Z,39.04
2019-01-26T03:50:11.663Z,38.95
2019-01-26T03:51:20.778Z,39.53
2019-01-26T03:52:30.147Z,38.66
2019-01-26T03:53:38.981Z,39.04
2019-01-26T03:54:47.798Z,39.04
2019-01-26T03:55:56.976Z,39.14
2019-01-26T03:57:06.097Z,39.04
2019-01-26T03:58:15.182Z,38.95
2019-01-26T03:59:24.787Z,38.76
2019-01-26T04:00:33.632Z,39.14
2019-01-26T04:01:42.778Z,38.95
2019-01-26T04:02:52.646Z,38.95
2019-01-26T04:04:01.739Z,38.95
2019-01-26T04:05:11.094Z,39.14
2019-01-26T04:06:19.904Z,39.04
2019-01-26T04:07:29.028Z,39.14
2019-01-26T04:08:38.411Z,39.22
2019-01-26T04:09:47.219Z,39.33
2019-01-26T04:10:56.356Z,39.23
2019-01-26T04:12:05.476Z,39.04
2019-01-26T04:13:14.358Z,40
2019-01-26T04:14:23.427Z,39.03
2019-01-26T04:15:32.791Z,39.33
2019-01-26T04:16:42.122Z,39.22
2019-01-26T04:17:51.474Z,39.14
2019-01-26T04:19:00.350Z,39.04
2019-01-26T04:20:09.441Z,39.43
2019-01-26T04:21:18.267Z,39.22
2019-01-26T04:22:27.103Z,39.04
2019-01-26T04:23:36.219Z,39.04
2019-01-26T04:24:45.177Z,39.04
2019-01-26T04:25:54.322Z,39.33
2019-01-26T04:27:03.696Z,39.23
2019-01-26T04:28:13.074Z,40.1
2019-01-26T04:29:21.907Z,39.04
2019-01-26T04:30:31.104Z,40.08
2019-01-26T04:31:39.934Z,39.41
2019-01-26T04:32:49.292Z,39.31
2019-01-26T04:33:58.119Z,39.5
2019-01-26T04:35:07.195Z,39.5
2019-01-26T04:36:16.109Z,39.5
2019-01-26T04:37:25.243Z,39.5
2019-01-26T04:38:34.905Z,39.89
2019-01-26T04:39:43.715Z,39.79
2019-01-26T04:40:52.534Z,39.79
2019-01-26T04:42:01.674Z,40.08
2019-01-26T04:43:10.758Z,39.79
2019-01-26T04:44:20.105Z,39.98
2019-01-26T04:45:29.201Z,39.98
2019-01-26T04:46:38.032Z,39.89
2019-01-26T04:47:46.933Z,39.89
2019-01-26T04:48:56.039Z,39.89
2019-01-26T04:50:05.411Z,39.89
2019-01-26T04:51:14.531Z,39.89
2019-01-26T04:52:23.352Z,39.89
2019-01-26T04:53:32.269Z,39.98
2019-01-26T04:54:41.348Z,39.79
2019-01-26T04:55:50.453Z,39.5
2019-01-26T04:56:59.290Z,39.89
2019-01-26T04:58:08.411Z,39.41
2019-01-26T04:59:17.799Z,39.5
2019-01-26T05:00:26.730Z,39.89
2019-01-26T05:01:35.825Z,39.5
2019-01-26T05:02:44.656Z,39.5
2019-01-26T05:03:53.491Z,39.7
2019-01-26T05:05:02.599Z,39.6
2019-01-26T05:06:11.685Z,39.79
2019-01-26T05:07:21.056Z,39.7
2019-01-26T05:08:30.159Z,39.79
2019-01-26T05:09:38.983Z,39.79
2019-01-26T05:10:48.156Z,39.6
2019-01-26T05:11:57.224Z,39.79
2019-01-26T05:13:06.057Z,39.79
2019-01-26T05:14:15.157Z,39.5
2019-01-26T05:15:23.983Z,39.79
2019-01-26T05:16:32.849Z,39.6
2019-01-26T05:17:42.010Z,39.7
2019-01-26T05:18:50.861Z,39.79
2019-01-26T05:19:59.932Z,39.89
2019-01-26T05:21:08.763Z,39.7
2019-01-26T05:22:17.631Z,39.7
2019-01-26T05:23:26.988Z,39.79
2019-01-26T05:24:36.060Z,39.7
2019-01-26T05:25:44.879Z,39.79
2019-01-26T05:26:53.979Z,39.7
2019-01-26T05:28:03.171Z,39.79
2019-01-26T05:29:12.275Z,39.7
2019-01-26T05:30:21.359Z,39.7
2019-01-26T05:31:30.185Z,39.6
2019-01-26T05:32:39.543Z,39.89
2019-01-26T05:33:48.701Z,39.6
2019-01-26T05:34:57.505Z,39.7
2019-01-26T05:36:06.321Z,39.7
2019-01-26T05:37:15.675Z,39.6
2019-01-26T05:38:24.740Z,39.79
2019-01-26T05:39:33.606Z,39.6
2019-01-26T05:40:42.425Z,39.5
2019-01-26T05:41:52.028Z,39.41
2019-01-26T05:43:01.099Z,39.5
2019-01-26T05:44:09.911Z,39.7
2019-01-26T05:45:18.713Z,39.5
2019-01-26T05:46:28.052Z,39.6
2019-01-26T05:47:36.847Z,39.79
2019-01-26T05:48:53.583Z,39.6
2019-01-26T05:50:02.702Z,39.6
2019-01-26T05:51:11.863Z,39.5
2019-01-26T05:52:20.944Z,39.7
2019-01-26T05:53:29.771Z,39.6
2019-01-26T05:54:38.844Z,39.41
2019-01-26T05:55:47.649Z,39.7
2019-01-26T05:56:56.815Z,39.5
2019-01-26T05:58:05.644Z,39.6
2019-01-26T05:59:14.755Z,39.6
2019-01-26T06:00:23.585Z,39.7
2019-01-26T06:01:32.807Z,39.5
2019-01-26T06:02:41.736Z,39.6
2019-01-26T06:03:50.549Z,39.5
2019-01-26T06:04:59.360Z,39.7
2019-01-26T06:06:08.189Z,39.7
2019-01-26T06:07:17.250Z,39.6
2019-01-26T06:08:26.330Z,39.89
2019-01-26T06:09:36.281Z,39.79
2019-01-26T06:10:45.639Z,40.17
2019-01-26T06:11:55.253Z,39.89
2019-01-26T06:13:04.339Z,39.89
2019-01-26T06:14:13.418Z,39.89
2019-01-26T06:15:22.552Z,39.89
2019-01-26T06:16:31.656Z,39.7
2019-01-26T06:17:40.485Z,39.5
2019-01-26T06:18:49.611Z,39.79
2019-01-26T06:19:58.766Z,39.79
2019-01-26T06:21:07.596Z,39.7
2019-01-26T06:22:16.403Z,39.79
2019-01-26T06:23:25.510Z,39.79
2019-01-26T06:24:34.576Z,39.79
2019-01-26T06:25:43.500Z,39.79
2019-01-26T06:26:52.599Z,39.79
2019-01-26T06:28:01.697Z,39.5
2019-01-26T06:29:11.046Z,39.5
2019-01-26T06:30:20.145Z,39.79
2019-01-26T06:31:28.976Z,39.7
2019-01-26T06:32:37.791Z,39.79
2019-01-26T06:33:47.155Z,40.17
2019-01-26T06:34:55.983Z,40.92
2019-01-26T06:36:05.070Z,40.73
2019-01-26T06:37:14.010Z,41.11
2019-01-26T06:38:23.361Z,41.4
2019-01-26T06:39:32.683Z,41.78
2019-01-26T06:40:41.759Z,41.97
2019-01-26T06:41:50.815Z,42.17
2019-01-26T06:42:59.757Z,42.94
2019-01-26T06:44:08.590Z,42.27
2019-01-26T06:45:17.990Z,42.84
2019-01-26T06:46:27.334Z,42.84
2019-01-26T06:47:37.382Z,42.55
2019-01-26T06:48:46.279Z,42.17
2019-01-26T06:49:55.369Z,41.97
2019-01-26T06:51:04.461Z,41.78
2019-01-26T06:52:13.555Z,41.78
2019-01-26T06:53:22.626Z,41.69
2019-01-26T06:54:31.822Z,41.5
2019-01-26T06:55:40.669Z,41.11
2019-01-26T06:56:49.479Z,41.21
2019-01-26T06:57:58.322Z,40.84
2019-01-26T06:59:07.391Z,41.21
2019-01-26T07:00:16.863Z,41.04
2019-01-26T07:01:25.674Z,41.33
2019-01-26T07:02:34.769Z,41.23
2019-01-26T07:03:43.871Z,40.84
2019-01-26T07:04:53.154Z,41.21
2019-01-26T07:06:02.058Z,41.21
2019-01-26T07:07:11.145Z,40.84
2019-01-26T07:08:20.219Z,41.04
2019-01-26T07:09:29.281Z,41.13
2019-01-26T07:10:38.362Z,41.04
2019-01-26T07:11:47.535Z,41.33
2019-01-26T07:12:56.652Z,41.23
2019-01-26T07:14:05.477Z,41.71
2019-01-26T07:15:14.579Z,41.61
2019-01-26T07:16:23.393Z,41.61
2019-01-26T07:17:32.295Z,41.71
2019-01-26T07:18:41.114Z,41.61
2019-01-26T07:19:49.933Z,41.8
2019-01-26T07:20:58.748Z,41.8
2019-01-26T07:22:07.854Z,41.52
2019-01-26T07:23:16.779Z,41.9
2019-01-26T07:24:25.876Z,42
2019-01-26T07:25:34.721Z,42
2019-01-26T07:26:43.526Z,41.8
2019-01-26T07:27:52.612Z,42.19
2019-01-26T07:29:01.510Z,42
2019-01-26T07:30:11.171Z,42.1
2019-01-26T07:31:19.985Z,42
2019-01-26T07:32:29.602Z,42.29
2019-01-26T07:33:38.971Z,42.29
2019-01-26T07:34:48.331Z,42.19
2019-01-26T07:35:57.163Z,42.1
2019-01-26T07:37:05.987Z,42.29
2019-01-26T07:38:16.074Z,42.67
2019-01-26T07:39:25.155Z,42.57
2019-01-26T07:40:34.592Z,42.96
2019-01-26T07:41:43.429Z,42.86
2019-01-26T07:42:52.797Z,42.96
2019-01-26T07:44:01.604Z,42.96
2019-01-26T07:45:10.435Z,43.24
2019-01-26T07:46:19.317Z,43.34
2019-01-26T07:47:28.410Z,43.24
2019-01-26T07:48:37.259Z,43.34
2019-01-26T07:49:46.917Z,43.15
2019-01-26T07:50:56.011Z,43.34
2019-01-26T07:52:04.923Z,43.34
2019-01-26T07:53:14.035Z,43.15
2019-01-26T07:54:23.130Z,43.34
2019-01-26T07:55:31.992Z,43.15
2019-01-26T07:56:40.800Z,43.15
2019-01-26T07:57:49.645Z,43.15
2019-01-26T07:58:59.280Z,43.07
2019-01-26T08:00:08.618Z,43.24
2019-01-26T08:01:17.978Z,43.15
2019-01-26T08:02:27.055Z,43.24
2019-01-26T08:03:36.241Z,43.15
2019-01-26T08:04:45.339Z,43.07
2019-01-26T08:05:54.150Z,43.17
2019-01-26T08:07:02.979Z,43.07
2019-01-26T08:08:11.783Z,43.07
2019-01-26T08:09:20.865Z,42.88
2019-01-26T08:10:29.945Z,42.98
2019-01-26T08:11:39.020Z,43.07
2019-01-26T08:12:49.467Z,42.98
2019-01-26T08:13:58.295Z,43.07
2019-01-26T08:15:07.462Z,42.98
2019-01-26T08:16:16.805Z,42.98
2019-01-26T08:17:26.431Z,42.98
2019-01-26T08:18:35.266Z,42.98
2019-01-26T08:19:44.069Z,42.98
2019-01-26T08:20:53.517Z,42.98
2019-01-26T08:22:02.369Z,42.79
2019-01-26T08:23:11.185Z,42.69
2019-01-26T08:24:20.271Z,42.69
2019-01-26T08:25:29.099Z,42.69
2019-01-26T08:26:38.285Z,42.98
2019-01-26T08:27:47.888Z,42.98
2019-01-26T08:28:57.237Z,42.98
2019-01-26T08:30:06.852Z,42.79
2019-01-26T08:31:15.657Z,42.98
2019-01-26T08:32:25.060Z,42.98
2019-01-26T08:33:34.386Z,43.07
2019-01-26T08:34:43.482Z,43.07
2019-01-26T08:35:52.816Z,43.27
2019-01-26T08:37:02.182Z,43.27
2019-01-26T08:38:11.281Z,42.79
2019-01-26T08:39:20.358Z,43.17
2019-01-26T08:40:29.160Z,43.27
2019-01-26T08:41:38.267Z,43.07
2019-01-26T08:42:47.345Z,42.88
2019-01-26T08:43:56.765Z,43.27
2019-01-26T08:45:05.877Z,43.07
2019-01-26T08:46:14.958Z,43.07
2019-01-26T08:47:23.766Z,42.79
2019-01-26T08:48:33.832Z,43.27
2019-01-26T08:49:42.979Z,42.79
2019-01-26T08:50:52.063Z,43.27
2019-01-26T08:52:01.178Z,43.07
2019-01-26T08:53:10.292Z,42.98
2019-01-26T08:54:19.381Z,42.98
2019-01-26T08:55:28.310Z,43.27
2019-01-26T08:56:37.116Z,43.17
2019-01-26T08:57:45.929Z,43.07
2019-01-26T08:58:54.764Z,43.17
2019-01-26T09:00:03.867Z,43.17
2019-01-26T09:01:13.339Z,43.07
2019-01-26T09:02:27.974Z,43.07
2019-01-26T09:03:37.321Z,43.07
2019-01-26T09:04:46.944Z,43.27
2019-01-26T09:05:55.798Z,43.17
2019-01-26T09:07:04.929Z,43.17
2019-01-26T09:08:13.765Z,43.27
2019-01-26T09:09:22.585Z,43.07
2019-01-26T09:10:31.665Z,43.36
2019-01-26T09:11:40.495Z,43.27
2019-01-26T09:12:49.399Z,43.27
2019-01-26T09:13:58.226Z,43.17
2019-01-26T09:15:07.302Z,43.17
2019-01-26T09:16:16.364Z,43.17
2019-01-26T09:17:25.461Z,43.27
2019-01-26T09:18:41.189Z,43.27
2019-01-26T09:19:50.530Z,43.36
2019-01-26T09:20:59.863Z,43.27
2019-01-26T09:22:08.686Z,43.27
2019-01-26T09:23:18.028Z,43.17
2019-01-26T09:24:27.462Z,43.36
2019-01-26T09:25:37.320Z,43.36
2019-01-26T09:26:46.671Z,43.27
2019-01-26T09:27:55.483Z,43.36
2019-01-26T09:29:04.548Z,43.27
2019-01-26T09:30:13.635Z,43.46
2019-01-26T09:31:22.968Z,43.46
2019-01-26T09:32:31.781Z,43.27
2019-01-26T09:33:41.125Z,43.55
2019-01-26T09:34:50.473Z,43.55
2019-01-26T09:36:00.471Z,43.55
2019-01-26T09:37:09.817Z,43.55
2019-01-26T09:38:18.891Z,43.55
2019-01-26T09:39:28.013Z,43.36
2019-01-26T09:40:37.096Z,43.36
2019-01-26T09:41:47.380Z,43.55
2019-01-26T09:42:56.182Z,43.46
2019-01-26T09:44:05.532Z,43.55
2019-01-26T09:45:14.599Z,43.36
2019-01-26T09:46:23.663Z,43.46
2019-01-26T09:47:32.847Z,43.46
2019-01-26T09:48:48.543Z,43.46
2019-01-26T09:49:57.374Z,43.46
2019-01-26T09:51:07.008Z,43.46
2019-01-26T09:52:16.357Z,43.27
2019-01-26T09:53:25.827Z,43.46
2019-01-26T09:54:34.903Z,43.36
2019-01-26T09:55:44.244Z,43.46
2019-01-26T09:56:53.322Z,43.46
2019-01-26T09:58:02.131Z,43.27
2019-01-26T09:59:11.062Z,43.55
2019-01-26T10:00:20.467Z,43.65
2019-01-26T10:01:29.302Z,43.65
2019-01-26T10:02:38.138Z,43.65
2019-01-26T10:03:47.227Z,43.55
2019-01-26T10:04:56.584Z,43.65
2019-01-26T10:06:05.417Z,43.74
2019-01-26T10:07:14.518Z,43.65
2019-01-26T10:08:23.854Z,43.84
2019-01-26T10:09:32.952Z,43.65
2019-01-26T10:10:42.406Z,43.84
2019-01-26T10:11:51.483Z,43.74
2019-01-26T10:13:00.596Z,43.84
2019-01-26T10:14:09.452Z,43.74
2019-01-26T10:15:18.300Z,43.65
2019-01-26T10:16:27.758Z,43.65
2019-01-26T10:17:36.586Z,43.65
2019-01-26T10:18:56.389Z,43.65
2019-01-26T10:20:05.456Z,43.74
2019-01-26T10:21:15.091Z,43.84
2019-01-26T10:22:25.655Z,43.65
2019-01-26T10:23:34.748Z,43.74
2019-01-26T10:24:43.555Z,43.46
2019-01-26T10:25:52.648Z,43.65
2019-01-26T10:27:02.523Z,43.46
2019-01-26T10:28:11.371Z,43.65
2019-01-26T10:29:20.188Z,43.46
2019-01-26T10:30:29.568Z,43.55
2019-01-26T10:31:38.635Z,43.46
2019-01-26T10:32:49.076Z,43.46
2019-01-26T10:33:57.888Z,43.65
2019-01-26T10:35:07.487Z,43.65
2019-01-26T10:36:16.578Z,43.55
2019-01-26T10:37:26.171Z,43.65
2019-01-26T10:38:35.262Z,43.65
2019-01-26T10:39:44.455Z,43.65
2019-01-26T10:40:53.865Z,43.65
2019-01-26T10:42:03.206Z,43.55
2019-01-26T10:43:12.320Z,43.65
2019-01-26T10:44:21.148Z,43.74
2019-01-26T10:45:30.362Z,43.27
2019-01-26T10:46:39.177Z,43.65
2019-01-26T10:47:48.506Z,43.55
2019-01-26T10:49:02.933Z,43.55
2019-01-26T10:50:11.785Z,43.65
2019-01-26T10:51:20.664Z,43.65
2019-01-26T10:52:29.769Z,43.65
2019-01-26T10:53:39.127Z,43.74
2019-01-26T10:54:47.965Z,43.65
2019-01-26T10:55:56.764Z,43.84
2019-01-26T10:57:06.233Z,43.65
2019-01-26T10:58:15.320Z,43.65
2019-01-26T10:59:24.687Z,43.65
2019-01-26T11:00:33.522Z,43.65
2019-01-26T11:01:42.614Z,43.65
2019-01-26T11:02:51.430Z,43.65
2019-01-26T11:04:00.221Z,43.46
2019-01-26T11:05:09.314Z,43.55
2019-01-26T11:06:18.159Z,43.46
2019-01-26T11:07:27.262Z,43.84
2019-01-26T11:08:36.180Z,43.84
2019-01-26T11:09:45.521Z,43.84
2019-01-26T11:10:54.390Z,44.15
2019-01-26T11:12:03.496Z,44.15
2019-01-26T11:13:12.848Z,44.24
2019-01-26T11:14:22.456Z,44.44
2019-01-26T11:15:31.544Z,44.44
2019-01-26T11:16:41.133Z,44.34
2019-01-26T11:17:49.949Z,44.06
2019-01-26T11:18:59.586Z,44.24
2019-01-26T11:20:14.703Z,44.15
2019-01-26T11:21:25.391Z,44.34
2019-01-26T11:22:34.808Z,44.15
2019-01-26T11:23:43.965Z,44.15
2019-01-26T11:24:52.813Z,44.15
2019-01-26T11:26:01.730Z,44.15
2019-01-26T11:27:10.562Z,44.54
2019-01-26T11:28:19.685Z,44.73
2019-01-26T11:29:28.494Z,44.54
2019-01-26T11:30:37.319Z,44.63
2019-01-26T11:31:47.001Z,44.73
2019-01-26T11:32:56.340Z,44.63
2019-01-26T11:34:05.160Z,44.63
2019-01-26T11:35:13.985Z,44.63
2019-01-26T11:36:22.895Z,44.73
2019-01-26T11:37:31.705Z,44.63
2019-01-26T11:38:40.557Z,44.82
2019-01-26T11:39:49.376Z,44.63
2019-01-26T11:40:58.467Z,44.73
2019-01-26T11:42:08.411Z,44.63
2019-01-26T11:43:17.528Z,44.73
2019-01-26T11:44:26.609Z,44.63
2019-01-26T11:45:35.433Z,44.63
2019-01-26T11:46:44.312Z,44.63
2019-01-26T11:47:53.400Z,44.73
2019-01-26T11:49:02.522Z,44.63
2019-01-26T11:50:18.525Z,44.63
2019-01-26T11:51:27.637Z,44.73
2019-01-26T11:52:36.465Z,44.63
2019-01-26T11:53:45.262Z,44.73
2019-01-26T11:54:54.204Z,44.63
2019-01-26T11:56:03.278Z,44.73
2019-01-26T11:57:12.685Z,44.73
2019-01-26T11:58:21.766Z,44.73
2019-01-26T11:59:30.863Z,44.63
2019-01-26T12:00:40.682Z,44.73
2019-01-26T12:01:49.781Z,44.54
2019-01-26T12:02:58.874Z,44.54
2019-01-26T12:04:08.242Z,44.54
2019-01-26T12:05:17.600Z,44.63
2019-01-26T12:06:26.445Z,44.63
2019-01-26T12:07:35.298Z,44.54
2019-01-26T12:08:44.119Z,44.63
2019-01-26T12:09:53.459Z,44.73
2019-01-26T12:11:02.558Z,44.63
2019-01-26T12:12:11.677Z,44.73
2019-01-26T12:13:20.778Z,44.73
2019-01-26T12:14:29.612Z,44.54
2019-01-26T12:15:38.972Z,44.63
2019-01-26T12:16:47.782Z,44.44
2019-01-26T12:17:56.670Z,44.7
2019-01-26T12:19:06.012Z,44.63
2019-01-26T12:20:14.891Z,44.54
2019-01-26T12:21:23.818Z,44.51
2019-01-26T12:22:32.631Z,44.73
2019-01-26T12:23:41.832Z,44.73
2019-01-26T12:24:50.911Z,44.73
2019-01-26T12:26:00.530Z,44.54
2019-01-26T12:27:09.639Z,44.54
2019-01-26T12:28:18.456Z,44.54
2019-01-26T12:29:27.383Z,44.63
2019-01-26T12:30:36.264Z,44.73
2019-01-26T12:31:45.346Z,44.73
2019-01-26T12:32:54.460Z,44.73
2019-01-26T12:34:03.797Z,44.73
2019-01-26T12:35:12.605Z,44.24
2019-01-26T12:36:21.424Z,44.34
2019-01-26T12:37:30.571Z,44.44
2019-01-26T12:38:39.398Z,44.34
2019-01-26T12:39:48.467Z,44.63
2019-01-26T12:40:57.652Z,44.82
2019-01-26T12:42:06.752Z,44.73
2019-01-26T12:43:15.837Z,44.63
2019-01-26T12:44:24.929Z,44.34
2019-01-26T12:45:34.006Z,44.54
2019-01-26T12:46:42.874Z,44.63
2019-01-26T12:47:51.682Z,44.92
2019-01-26T12:49:01.002Z,44.63
2019-01-26T12:50:09.830Z,44.63
2019-01-26T12:51:19.462Z,45.11
2019-01-26T12:52:28.698Z,45.11
2019-01-26T12:53:37.786Z,45.01
2019-01-26T12:54:46.651Z,45.09
2019-01-26T12:55:55.462Z,45.57
2019-01-26T12:57:04.295Z,45.67
2019-01-26T12:58:13.439Z,45.88
2019-01-26T12:59:22.546Z,45.78
2019-01-26T13:00:31.630Z,45.37
2019-01-26T13:01:40.974Z,45.4
2019-01-26T13:02:51.644Z,45.09
2019-01-26T13:04:00.558Z,45.11
2019-01-26T13:05:10.196Z,45.4
2019-01-26T13:06:19.533Z,45.3
2019-01-26T13:07:28.634Z,45.78
2019-01-26T13:08:37.447Z,45.5
2019-01-26T13:09:47.822Z,45.67
2019-01-26T13:10:56.638Z,45.59
2019-01-26T13:12:05.464Z,45.59
2019-01-26T13:13:14.528Z,45.59
2019-01-26T13:14:23.333Z,45.59
2019-01-26T13:15:32.237Z,45.59
2019-01-26T13:16:41.334Z,45.59
2019-01-26T13:17:50.130Z,45.47
2019-01-26T13:18:58.949Z,45.76
2019-01-26T13:20:07.759Z,45.78
2019-01-26T13:21:16.661Z,45.47
2019-01-26T13:22:25.817Z,45.5
2019-01-26T13:23:35.192Z,45.88
2019-01-26T13:24:44.034Z,45.68
2019-01-26T13:25:52.858Z,45.01
2019-01-26T13:27:01.924Z,45.21
2019-01-26T13:28:11.016Z,44.9
2019-01-26T13:29:20.106Z,45.11
2019-01-26T13:30:28.924Z,45.09
2019-01-26T13:31:37.754Z,45.78
2019-01-26T13:32:46.937Z,45.59
2019-01-26T13:33:56.015Z,45.78
2019-01-26T13:35:05.113Z,45.59
2019-01-26T13:36:13.920Z,45.59
2019-01-26T13:37:22.737Z,45.98
2019-01-26T13:38:32.079Z,45.59
2019-01-26T13:39:40.936Z,45.98
2019-01-26T13:40:49.770Z,46.07
2019-01-26T13:41:58.872Z,46.26
2019-01-26T13:43:07.945Z,45.78
2019-01-26T13:44:17.161Z,45.98
2019-01-26T13:45:26.805Z,45.68
2019-01-26T13:46:35.860Z,45.78
2019-01-26T13:47:45.003Z,45.98
2019-01-26T13:48:53.989Z,45.88
2019-01-26T13:50:02.916Z,45.78
2019-01-26T13:51:15.319Z,45.78
2019-01-26T13:52:24.479Z,46.07
2019-01-26T13:53:33.583Z,46.07
2019-01-26T13:54:42.688Z,45.78
2019-01-26T13:55:51.579Z,45.78
2019-01-26T13:57:00.394Z,45.78
2019-01-26T13:58:09.551Z,45.68
2019-01-26T13:59:18.948Z,45.98
2019-01-26T14:00:27.785Z,45.98
2019-01-26T14:01:37.568Z,45.88
2019-01-26T14:02:46.441Z,45.59
2019-01-26T14:03:55.518Z,45.88
2019-01-26T14:05:04.448Z,45.68
2019-01-26T14:06:13.532Z,45.78
2019-01-26T14:07:22.774Z,45.68
2019-01-26T14:08:31.622Z,45.59
2019-01-26T14:09:41.139Z,45.78
2019-01-26T14:10:49.947Z,45.78
2019-01-26T14:11:59.093Z,45.78
2019-01-26T14:13:08.849Z,45.88
2019-01-26T14:14:17.946Z,45.59
2019-01-26T14:15:26.835Z,45.78
2019-01-26T14:16:36.493Z,45.78
2019-01-26T14:17:45.371Z,45.78
2019-01-26T14:18:54.691Z,45.78
2019-01-26T14:20:03.957Z,45.88
2019-01-26T14:21:13.060Z,45.78
2019-01-26T14:22:22.207Z,45.59
2019-01-26T14:23:31.037Z,45.68
2019-01-26T14:24:40.227Z,45.68
2019-01-26T14:25:49.105Z,45.88
2019-01-26T14:26:58.452Z,45.78
2019-01-26T14:28:07.783Z,45.88
2019-01-26T14:29:16.644Z,45.78
2019-01-26T14:30:25.520Z,45.88
2019-01-26T14:31:34.895Z,45.88
2019-01-26T14:32:43.991Z,45.98
2019-01-26T14:34:00.046Z,45.78
2019-01-26T14:35:09.694Z,45.88
2019-01-26T14:36:18.946Z,45.78
2019-01-26T14:37:27.817Z,45.59
2019-01-26T14:38:36.978Z,45.78
2019-01-26T14:39:46.102Z,45.88
2019-01-26T14:40:55.228Z,45.78
2019-01-26T14:42:04.291Z,45.59
2019-01-26T14:43:13.447Z,45.59
2019-01-26T14:44:22.300Z,45.88
2019-01-26T14:45:31.528Z,45.78
2019-01-26T14:46:40.385Z,45.78
2019-01-26T14:47:49.633Z,45.78
2019-01-26T14:48:58.740Z,45.78
2019-01-26T14:50:07.599Z,45.78
2019-01-26T14:51:16.509Z,45.78
2019-01-26T14:52:25.363Z,45.78
2019-01-26T14:53:34.809Z,45.5
2019-01-26T14:54:50.082Z,45.78